Sugar Camp, Wisconsin
Current Conditions -  °F | °C
As of 11:53 AM on Thursday 30 Oct 2014 (Local Time) from KRHI Reporting Station
Overcast Overcast  
Wind Chill: 33°   Ceiling: 1500
Heat Index: 39°   Visibility: 10mi
Dew Point: 32°   Wind: 9mph
Humidity: 76%   Direction: 280°W
Pressure: 30.05"   Gusts: NA
Location:  45.6521°N, 89.3386°W
Report Text: KRHI 301653Z AUTO 28008KT 10SM OVC015 04/00 A3005 RMK AO2 SLP189 T00390000
Loading
Personal Weather Stations






























Interactive Weather Map
Tropical Storm Tracking
New forecast layout! Learn more

10-Day Weather Forecast

Advertisements
Track Severe Weather on mobile